Monte Anaga — EAHA — position and weather

sailwx.info

Track history (hours):
 
Tides and Currents Weather Stations Pressure Air Temp Water Temp Dewpoint Dewpoint Depression Visibility Wind Speed Wind Dir Waves Ship Positions

Monte Anaga

Last reported at 2018-Jun-19 00:55 UTC. Time now 2018-Jun-24 01:26 UTC.
Position N 36°09' W 005°26'.

Length 87 m; draft 3.5 m.

Type: Tanker. MMSI: 225419000.

Date/timePositionNaut miles runAvg speedWind from/ knotsBaromVisibWave heightAir tempDewpointWater temp
2018-Jun-19 00:55N 36°09' W 005°26'0 0.0
2018-Jun-19 00:30N 36°09' W 005°26'0 0.0
2018-Jun-18 20:13N 36°09' W 005°26'0 0.1
2018-Jun-18 20:00N 36°09' W 005°26'0 0.0
2018-Jun-18 19:27N 36°09' W 005°26'0 0.1
2018-Jun-18 19:00N 36°09' W 005°26'0 0.0
2018-Jun-18 13:07N 36°09' W 005°26'2 0.3
2018-Jun-18 06:00N 36°11' W 005°24'0 0.0
2018-Jun-18 05:30N 36°11' W 005°24'0 0.0
2018-Jun-18 05:00N 36°11' W 005°24'0 0.0
2018-Jun-18 04:29N 36°11' W 005°24'0 0.0
2018-Jun-18 03:43N 36°11' W 005°24'0 0.0
2018-Jun-18 03:29N 36°11' W 005°24'0 0.0
2018-Jun-18 02:19N 36°11' W 005°24'0 0.0
2018-Jun-18 02:00N 36°11' W 005°24'0 0.0
2018-Jun-18 01:30N 36°11' W 005°24'0 0.0
2018-Jun-18 01:00N 36°11' W 005°24'0 0.0
2018-Jun-18 00:30N 36°11' W 005°24'0 0.0
2018-Jun-18 00:00N 36°11' W 005°24'0 0.0
2018-Jun-17 23:29N 36°11' W 005°24'0 0.0
2018-Jun-17 22:59N 36°11' W 005°24'0 0.0
2018-Jun-17 21:41N 36°11' W 005°24'0 1.7
2018-Jun-17 21:29N 36°11' W 005°23'0 0.1
2018-Jun-17 21:00N 36°11' W 005°23'0 0.0
2018-Jun-17 20:30N 36°11' W 005°23'0 0.0
2018-Jun-17 20:00N 36°11' W 005°23'3 5.7
2018-Jun-17 19:30N 36°08' W 005°26'0 0.2
2018-Jun-17 19:00N 36°08' W 005°26'0 0.0
2018-Jun-17 18:30N 36°08' W 005°26'0 0.0
2018-Jun-17 16:24N 36°08' W 005°26'0 0.0
2018-Jun-17 15:47N 36°08' W 005°26'0 0.0
2018-Jun-17 15:24N 36°08' W 005°26'0 0.0
2018-Jun-17 15:00N 36°08' W 005°26'0 0.0
2018-Jun-17 14:27N 36°08' W 005°26'0 0.0
2018-Jun-17 14:00N 36°08' W 005°26'0 0.0
2018-Jun-17 13:30N 36°08' W 005°26'0 0.0
2018-Jun-17 13:00N 36°08' W 005°26'0 0.0
2018-Jun-17 12:30N 36°08' W 005°26'0 0.0
2018-Jun-17 12:00N 36°08' W 005°26'0 0.0
2018-Jun-17 08:52N 36°08' W 005°26'0 0.0
2018-Jun-17 08:30N 36°08' W 005°26'2 4.4
2018-Jun-17 08:00N 36°10' W 005°24'1 1.2
2018-Jun-17 07:30N 36°11' W 005°24'0 0.0
2018-Jun-17 07:00N 36°11' W 005°24'0 0.0
2018-Jun-17 06:30N 36°11' W 005°24'0 0.0
2018-Jun-17 05:58N 36°11' W 005°24'0 0.0
2018-Jun-17 05:26N 36°11' W 005°24'0 0.0
2018-Jun-17 04:57N 36°11' W 005°24'0 0.0
2018-Jun-17 04:28N 36°11' W 005°24'0 0.0
2018-Jun-17 04:00N 36°11' W 005°24'0 0.0
2018-Jun-17 03:19N 36°11' W 005°24'0 0.0
2018-Jun-17 02:52N 36°11' W 005°24'0 0.0
2018-Jun-17 02:30N 36°11' W 005°24'0 0.0
2018-Jun-17 02:00N 36°11' W 005°24'0 0.0
2018-Jun-17 01:29N 36°11' W 005°24'0 0.0
2018-Jun-17 01:00N 36°11' W 005°24'0 0.0
2018-Jun-17 00:30N 36°11' W 005°24'0 0.0
2018-Jun-16 23:43N 36°11' W 005°24'0 0.0
2018-Jun-16 23:29N 36°11' W 005°24'0 0.0
2018-Jun-16 22:59N 36°11' W 005°24'0 0.0
2018-Jun-16 22:30N 36°11' W 005°24'0 0.1
2018-Jun-16 22:00N 36°11' W 005°24'2 4.7
2018-Jun-16 21:30N 36°09' W 005°26'0 0.0
2018-Jun-16 20:58N 36°09' W 005°26'0 0.1
2018-Jun-16 20:28N 36°09' W 005°26'0 0.1
2018-Jun-16 19:58N 36°09' W 005°26'0 0.1
2018-Jun-16 19:30N 36°09' W 005°26'0 0.0
2018-Jun-16 19:00N 36°09' W 005°26'0 0.0
2018-Jun-16 18:30N 36°09' W 005°26'0 0.1
2018-Jun-16 17:54N 36°09' W 005°26'0 0.0
2018-Jun-16 15:40N 36°09' W 005°26'0 0.0
2018-Jun-16 15:30N 36°09' W 005°26'0 0.1
2018-Jun-16 14:59N 36°09' W 005°26'0 0.0
2018-Jun-16 06:19N 36°09' W 005°26'0 0.1
2018-Jun-16 06:00N 36°09' W 005°26'0 0.0
2018-Jun-16 05:30N 36°09' W 005°26'0 0.0
2018-Jun-16 04:59N 36°09' W 005°26'0 0.1
2018-Jun-16 04:29N 36°09' W 005°26'0 0.0
2018-Jun-16 04:00N 36°09' W 005°26'0 0.0
2018-Jun-16 03:30N 36°09' W 005°26'0 0.0
2018-Jun-16 03:00N 36°09' W 005°26'0 0.0
2018-Jun-16 02:30N 36°09' W 005°26'0 0.0
2018-Jun-16 02:00N 36°09' W 005°26'0 0.1
2018-Jun-16 01:29N 36°09' W 005°26'0 0.1
2018-Jun-16 01:00N 36°09' W 005°26'0 0.0
2018-Jun-16 00:30N 36°09' W 005°26'0 0.0
2018-Jun-15 23:58N 36°09' W 005°26'0 0.1
2018-Jun-15 23:30N 36°09' W 005°26'0 0.0
2018-Jun-15 23:00N 36°09' W 005°26'0 0.0
2018-Jun-15 22:29N 36°09' W 005°26'0 0.0
2018-Jun-15 22:00N 36°09' W 005°26'0 0.0
2018-Jun-15 21:30N 36°09' W 005°26'0 0.1
2018-Jun-15 21:00N 36°09' W 005°26'0 0.0
2018-Jun-15 20:26N 36°09' W 005°26'0 0.1
2018-Jun-15 20:00N 36°09' W 005°26'0 0.1
2018-Jun-15 19:30N 36°09' W 005°26'0 0.0
2018-Jun-15 18:59N 36°09' W 005°26'0 0.0
2018-Jun-15 18:29N 36°09' W 005°26'0 0.1
2018-Jun-15 17:58N 36°09' W 005°26'0 0.0
2018-Jun-15 17:29N 36°09' W 005°26'0 0.0
2018-Jun-15 13:10N 36°09' W 005°26'1 2.5
2018-Jun-15 12:48N 36°09' W 005°26'0 0.0
2018-Jun-15 09:10N 36°09' W 005°26'0 0.0
2018-Jun-15 05:32N 36°09' W 005°26'0 0.0
2018-Jun-15 05:29N 36°09' W 005°26'0 0.0
2018-Jun-15 05:00N 36°09' W 005°26'0 0.0
2018-Jun-15 04:28N 36°09' W 005°26'0 0.0
2018-Jun-15 04:00N 36°09' W 005°26'1 1.5
2018-Jun-15 03:30N 36°09' W 005°26'0 0.0
2018-Jun-15 03:00N 36°09' W 005°26'0 0.1
2018-Jun-15 02:30N 36°09' W 005°26'0 0.0
2018-Jun-15 01:59N 36°09' W 005°26'0 0.1
2018-Jun-15 01:30N 36°09' W 005°26'0 0.6
2018-Jun-15 01:00N 36°10' W 005°26'2 3.0
2018-Jun-15 00:25N 36°11' W 005°24'0 0.0
2018-Jun-14 23:58N 36°11' W 005°24'0 0.0
2018-Jun-14 23:30N 36°11' W 005°24'0 0.0
2018-Jun-14 23:00N 36°11' W 005°24'0 0.0
2018-Jun-14 21:14N 36°11' W 005°24'0 0.0
2018-Jun-14 21:00N 36°11' W 005°24'0 0.0
2018-Jun-14 20:30N 36°11' W 005°24'0 0.0
2018-Jun-14 20:00N 36°11' W 005°24'0 0.0
2018-Jun-14 19:30N 36°11' W 005°24'0 0.0
2018-Jun-14 17:48N 36°11' W 005°24'0 0.0
2018-Jun-14 17:30N 36°11' W 005°24'1 0.2
2018-Jun-14 14:01N 36°10' W 005°25'0 0.9
2018-Jun-14 14:00N 36°10' W 005°25'2 3.6
2018-Jun-14 13:28N 36°08' W 005°25'1 3.1
2018-Jun-14 13:00N 36°07' W 005°24'1 1.2
2018-Jun-14 12:30N 36°06' W 005°24'0 0.1
2018-Jun-14 12:00N 36°06' W 005°24'0 0.1
2018-Jun-14 11:28N 36°06' W 005°24'0 0.1
2018-Jun-14 10:52N 36°06' W 005°24'0 0.1
2018-Jun-14 10:30N 36°06' W 005°24'0 0.2
2018-Jun-14 09:42N 36°06' W 005°25'0 0.1
2018-Jun-14 09:27N 36°06' W 005°25'0 0.0
2018-Jun-14 06:05N 36°06' W 005°24'0 0.1
2018-Jun-14 06:00N 36°06' W 005°24'0 0.0
2018-Jun-14 05:30N 36°06' W 005°24'0 0.1
2018-Jun-14 04:58N 36°06' W 005°24'0 0.3
2018-Jun-14 04:30N 36°06' W 005°24'0 0.1
2018-Jun-14 04:00N 36°06' W 005°24'1 1.6
2018-Jun-14 03:30N 36°07' W 005°24'0 0.3
2018-Jun-14 03:00N 36°07' W 005°25'1 2.0
2018-Jun-14 02:30N 36°08' W 005°25'1 2.0
2018-Jun-14 02:00N 36°08' W 005°26'0 0.2
2018-Jun-14 01:30N 36°08' W 005°26'0 0.0
2018-Jun-13 22:44N 36°08' W 005°26'0 0.0
2018-Jun-13 22:30N 36°08' W 005°26'0 0.0
2018-Jun-13 22:00N 36°08' W 005°26'0 0.0
2018-Jun-13 21:30N 36°08' W 005°26'0 0.0
2018-Jun-13 21:00N 36°08' W 005°26'0 0.0
2018-Jun-13 20:30N 36°08' W 005°26'0 0.0
2018-Jun-13 20:00N 36°08' W 005°26'0 0.0
2018-Jun-13 19:30N 36°08' W 005°26'0 0.0
2018-Jun-13 16:20N 36°08' W 005°26'0 0.0
2018-Jun-13 15:59N 36°08' W 005°26'0 0.0
2018-Jun-13 12:42N 36°08' W 005°26'0 0.0
2018-Jun-13 12:30N 36°08' W 005°26'0 0.0
2018-Jun-13 12:00N 36°08' W 005°26'0 0.1
2018-Jun-13 10:06N 36°08' W 005°26'1 4.2
2018-Jun-13 09:56N 36°09' W 005°26'2 2.6
2018-Jun-13 09:09N 36°07' W 005°24'0 0.0
2018-Jun-13 07:01N 36°07' W 005°25'0 0.0
2018-Jun-13 07:00N 36°07' W 005°25'0 0.2
2018-Jun-13 06:18N 36°07' W 005°24'0 0.4
2018-Jun-13 06:00N 36°07' W 005°24'0 0.2
2018-Jun-13 05:30N 36°07' W 005°24'0 0.3
2018-Jun-13 05:00N 36°07' W 005°24'0 0.1
2018-Jun-13 04:30N 36°07' W 005°24'0 0.0
2018-Jun-13 03:58N 36°07' W 005°24'0 0.1
2018-Jun-13 03:30N 36°07' W 005°24'0 0.1
2018-Jun-13 03:00N 36°07' W 005°24'0 0.2
2018-Jun-13 02:30N 36°07' W 005°24'0 0.1
2018-Jun-13 02:00N 36°07' W 005°24'0 0.1
2018-Jun-13 01:30N 36°07' W 005°24'2 5.0
2018-Jun-13 01:00N 36°09' W 005°26'0 0.2
2018-Jun-13 00:30N 36°09' W 005°26'0 0.0
2018-Jun-13 00:00N 36°09' W 005°26'0 0.0
2018-Jun-12 23:18N 36°09' W 005°26'0 0.1
2018-Jun-12 22:44N 36°09' W 005°26'0 0.0
2018-Jun-12 22:30N 36°09' W 005°26'0 0.1
2018-Jun-12 21:56N 36°09' W 005°26'0 0.1
2018-Jun-12 20:45N 36°09' W 005°26'0 0.1
2018-Jun-12 20:30N 36°09' W 005°26'0 0.0
2018-Jun-12 19:56N 36°09' W 005°26'0 0.0
2018-Jun-12 19:30N 36°09' W 005°26'0 0.0
2018-Jun-12 09:04N 36°09' W 005°26'0 0.2
2018-Jun-12 08:58N 36°09' W 005°26'0 0.0
2018-Jun-12 08:25N 36°09' W 005°26'1 0.2
2018-Jun-12 05:20N 36°09' W 005°25'2 5.2
2018-Jun-12 05:00N 36°11' W 005°24'0 0.4
2018-Jun-12 04:26N 36°11' W 005°24'0 0.0
2018-Jun-12 04:00N 36°11' W 005°24'0 0.0
2018-Jun-12 03:30N 36°11' W 005°24'0 0.0
2018-Jun-12 03:00N 36°11' W 005°24'0 0.0
2018-Jun-12 02:29N 36°11' W 005°24'0 0.0
2018-Jun-12 02:00N 36°11' W 005°24'0 0.0
2018-Jun-12 01:30N 36°11' W 005°24'0 0.0
2018-Jun-12 00:57N 36°11' W 005°24'0 0.0
2018-Jun-12 00:25N 36°11' W 005°24'0 0.0
2018-Jun-11 23:56N 36°11' W 005°24'0 0.0
2018-Jun-11 23:29N 36°11' W 005°24'0 0.0
2018-Jun-11 22:57N 36°11' W 005°24'0 0.0
2018-Jun-11 22:30N 36°11' W 005°24'0 0.0
2018-Jun-11 21:58N 36°11' W 005°24'0 0.0
2018-Jun-11 21:27N 36°11' W 005°24'0 1.0
2018-Jun-11 21:00N 36°10' W 005°23'1 1.2
2018-Jun-11 20:29N 36°10' W 005°24'2 3.6
2018-Jun-11 20:00N 36°09' W 005°26'0 0.1
2018-Jun-11 19:30N 36°09' W 005°26'0 0.0
2018-Jun-11 19:00N 36°09' W 005°26'0 0.0
2018-Jun-11 18:30N 36°09' W 005°26'0 0.0
2018-Jun-11 16:19N 36°09' W 005°26'0 0.1
2018-Jun-11 15:55N 36°09' W 005°26'0 0.1
2018-Jun-11 15:24N 36°09' W 005°26'1 0.1
2018-Jun-11 06:47N 36°09' W 005°26'0 0.0
2018-Jun-11 06:30N 36°09' W 005°26'1 1.4
2018-Jun-11 06:00N 36°09' W 005°26'0 0.2
2018-Jun-11 05:30N 36°09' W 005°26'0 0.0
2018-Jun-11 05:00N 36°09' W 005°26'0 0.1
2018-Jun-11 04:30N 36°09' W 005°26'0 0.0
2018-Jun-11 04:00N 36°09' W 005°26'1 2.2
2018-Jun-11 03:30N 36°08' W 005°26'0 0.2
2018-Jun-11 02:59N 36°08' W 005°26'0 0.0
2018-Jun-11 02:30N 36°08' W 005°26'0 0.0
2018-Jun-11 02:00N 36°08' W 005°26'0 0.0
2018-Jun-11 01:30N 36°08' W 005°26'0 0.0
2018-Jun-11 01:00N 36°08' W 005°26'0 0.0
2018-Jun-11 00:30N 36°08' W 005°26'0 0.0
2018-Jun-11 00:00N 36°08' W 005°26'0 0.0
2018-Jun-10 23:28N 36°08' W 005°26'0 0.0
2018-Jun-10 23:00N 36°08' W 005°26'0 0.0
2018-Jun-10 22:28N 36°08' W 005°26'0 0.0
2018-Jun-10 21:28N 36°08' W 005°26'0 0.0
2018-Jun-10 20:54N 36°08' W 005°26'0 0.0
2018-Jun-10 20:19N 36°08' W 005°26'0 0.0
2018-Jun-10 19:55N 36°08' W 005°26'0 0.0
2018-Jun-10 19:27N 36°08' W 005°26'0 0.0
2018-Jun-10 18:59N 36°08' W 005°26'0 0.0
2018-Jun-10 18:28N 36°08' W 005°26'0 0.0
2018-Jun-10 18:00N 36°08' W 005°26'0 0.0
2018-Jun-10 17:30N 36°08' W 005°26'0 0.0
2018-Jun-10 16:54N 36°08' W 005°26'0 0.0
2018-Jun-10 15:45N 36°08' W 005°26'0 0.0
2018-Jun-10 15:17N 36°08' W 005°26'0 0.0
2018-Jun-10 14:50N 36°08' W 005°26'0 0.0
2018-Jun-10 13:59N 36°08' W 005°26'0 0.0
2018-Jun-10 13:29N 36°08' W 005°26'0 0.0
2018-Jun-10 13:00N 36°08' W 005°26'1 2.4
2018-Jun-10 12:30N 36°09' W 005°26'0 0.1
2018-Jun-10 12:00N 36°09' W 005°26'0 0.0
2018-Jun-10 11:30N 36°09' W 005°26'0 0.0
2018-Jun-10 11:00N 36°09' W 005°26'0 0.0
2018-Jun-10 10:27N 36°09' W 005°26'0 0.0
2018-Jun-10 10:00N 36°09' W 005°26'0 0.0
2018-Jun-10 09:30N 36°09' W 005°26'0 0.1
2018-Jun-10 09:00N 36°09' W 005°26'0 0.0
2018-Jun-10 08:30N 36°09' W 005°26'0 0.0
2018-Jun-10 08:00N 36°09' W 005°26'0 0.0
2018-Jun-10 07:30N 36°09' W 005°26'0 0.1
2018-Jun-10 07:00N 36°09' W 005°26'0 0.0
2018-Jun-10 06:30N 36°09' W 005°26'0 0.0
2018-Jun-10 06:00N 36°09' W 005°26'0 0.1
2018-Jun-10 05:28N 36°09' W 005°26'0 0.1
2018-Jun-10 05:00N 36°09' W 005°26'0 0.1
2018-Jun-10 04:30N 36°09' W 005°26'0 0.0
2018-Jun-10 04:00N 36°09' W 005°26'0 0.0
2018-Jun-10 03:28N 36°09' W 005°26'0 0.0
2018-Jun-10 02:59N 36°09' W 005°26'0 0.0
2018-Jun-10 02:30N 36°09' W 005°26'0 0.0
2018-Jun-10 01:59N 36°09' W 005°26'0 0.0
2018-Jun-10 01:30N 36°09' W 005°26'0 0.0
2018-Jun-10 00:53N 36°09' W 005°26'0 0.0
2018-Jun-10 00:30N 36°09' W 005°26'0 0.0
2018-Jun-10 00:00N 36°09' W 005°26'0 0.0
2018-Jun-09 23:30N 36°09' W 005°26'0 0.0
2018-Jun-09 23:00N 36°09' W 005°26'0 0.0
2018-Jun-09 22:30N 36°09' W 005°26'0 0.0
2018-Jun-09 22:00N 36°09' W 005°26'0 0.0
2018-Jun-09 21:30N 36°09' W 005°26'0 0.0
2018-Jun-09 21:00N 36°09' W 005°26'0 0.0
2018-Jun-09 20:29N 36°09' W 005°26'0 0.0
2018-Jun-09 20:00N 36°09' W 005°26'0 0.0
2018-Jun-09 19:29N 36°09' W 005°26'0 0.0
2018-Jun-09 19:00N 36°09' W 005°26'0 0.0
2018-Jun-09 18:30N 36°09' W 005°26'0 0.0
2018-Jun-09 18:00N 36°09' W 005°26'0 0.0
2018-Jun-09 17:30N 36°09' W 005°26'0 0.0
2018-Jun-09 17:00N 36°09' W 005°26'0 0.0
2018-Jun-09 16:30N 36°09' W 005°26'0 0.0
2018-Jun-09 16:00N 36°09' W 005°26'0 0.0
2018-Jun-09 15:30N 36°09' W 005°26'0 0.0
2018-Jun-09 14:30N 36°09' W 005°26'0 0.0
2018-Jun-09 14:00N 36°09' W 005°26'0 0.0
2018-Jun-09 13:30N 36°09' W 005°26'0 0.0
2018-Jun-09 13:00N 36°09' W 005°26'0 0.0
2018-Jun-09 12:30N 36°09' W 005°26'0 0.1
2018-Jun-09 12:00N 36°09' W 005°26'0 0.0
2018-Jun-09 11:30N 36°09' W 005°26'0 0.0
2018-Jun-09 11:00N 36°09' W 005°26'0 0.0
2018-Jun-09 10:30N 36°09' W 005°26'0 0.0
2018-Jun-09 09:57N 36°09' W 005°26'0 0.0
2018-Jun-09 09:30N 36°09' W 005°26'0 0.0
2018-Jun-09 09:00N 36°09' W 005°26'0 0.0
2018-Jun-09 06:21N 36°09' W 005°26'0 0.2
2018-Jun-09 06:00N 36°09' W 005°26'0 0.0
2018-Jun-09 05:30N 36°09' W 005°26'0 0.1
2018-Jun-09 05:00N 36°09' W 005°26'0 0.0
2018-Jun-09 02:27N 36°09' W 005°26'0 0.0
2018-Jun-09 02:00N 36°09' W 005°26'0 0.0
2018-Jun-09 01:00N 36°09' W 005°26'  
Track history (hours):
 
Tides and Currents Weather Stations Pressure Air Temp Water Temp Dewpoint Dewpoint Depression Visibility Wind Speed Wind Dir Waves Ship Positions

Monte Anaga

Last reported at 2018-Jun-19 00:55 UTC. Time now 2018-Jun-24 01:26 UTC.
Position N 36°09' W 005°26'.

Length 87 m; draft 3.5 m.

Type: Tanker. MMSI: 225419000.

Date/timePositionNaut miles runAvg speedWind from/ knotsBaromVisibWave heightAir tempDewpointWater temp
2018-Jun-19 00:55N 36°09' W 005°26'0 0.0
2018-Jun-19 00:30N 36°09' W 005°26'0 0.0
2018-Jun-18 20:13N 36°09' W 005°26'0 0.1
2018-Jun-18 20:00N 36°09' W 005°26'0 0.0
2018-Jun-18 19:27N 36°09' W 005°26'0 0.1
2018-Jun-18 19:00N 36°09' W 005°26'0 0.0
2018-Jun-18 13:07N 36°09' W 005°26'2 0.3
2018-Jun-18 06:00N 36°11' W 005°24'0 0.0
2018-Jun-18 05:30N 36°11' W 005°24'0 0.0
2018-Jun-18 05:00N 36°11' W 005°24'0 0.0
2018-Jun-18 04:29N 36°11' W 005°24'0 0.0
2018-Jun-18 03:43N 36°11' W 005°24'0 0.0
2018-Jun-18 03:29N 36°11' W 005°24'0 0.0
2018-Jun-18 02:19N 36°11' W 005°24'0 0.0
2018-Jun-18 02:00N 36°11' W 005°24'0 0.0
2018-Jun-18 01:30N 36°11' W 005°24'0 0.0
2018-Jun-18 01:00N 36°11' W 005°24'0 0.0
2018-Jun-18 00:30N 36°11' W 005°24'0 0.0
2018-Jun-18 00:00N 36°11' W 005°24'0 0.0
2018-Jun-17 23:29N 36°11' W 005°24'0 0.0
2018-Jun-17 22:59N 36°11' W 005°24'0 0.0
2018-Jun-17 21:41N 36°11' W 005°24'0 1.7
2018-Jun-17 21:29N 36°11' W 005°23'0 0.1
2018-Jun-17 21:00N 36°11' W 005°23'0 0.0
2018-Jun-17 20:30N 36°11' W 005°23'0 0.0
2018-Jun-17 20:00N 36°11' W 005°23'3 5.7
2018-Jun-17 19:30N 36°08' W 005°26'0 0.2
2018-Jun-17 19:00N 36°08' W 005°26'0 0.0
2018-Jun-17 18:30N 36°08' W 005°26'0 0.0
2018-Jun-17 16:24N 36°08' W 005°26'0 0.0
2018-Jun-17 15:47N 36°08' W 005°26'0 0.0
2018-Jun-17 15:24N 36°08' W 005°26'0 0.0
2018-Jun-17 15:00N 36°08' W 005°26'0 0.0
2018-Jun-17 14:27N 36°08' W 005°26'0 0.0
2018-Jun-17 14:00N 36°08' W 005°26'0 0.0
2018-Jun-17 13:30N 36°08' W 005°26'0 0.0
2018-Jun-17 13:00N 36°08' W 005°26'0 0.0
2018-Jun-17 12:30N 36°08' W 005°26'0 0.0
2018-Jun-17 12:00N 36°08' W 005°26'0 0.0
2018-Jun-17 08:52N 36°08' W 005°26'0 0.0
2018-Jun-17 08:30N 36°08' W 005°26'2 4.4
2018-Jun-17 08:00N 36°10' W 005°24'1 1.2
2018-Jun-17 07:30N 36°11' W 005°24'0 0.0
2018-Jun-17 07:00N 36°11' W 005°24'0 0.0
2018-Jun-17 06:30N 36°11' W 005°24'0 0.0
2018-Jun-17 05:58N 36°11' W 005°24'0 0.0
2018-Jun-17 05:26N 36°11' W 005°24'0 0.0
2018-Jun-17 04:57N 36°11' W 005°24'0 0.0
2018-Jun-17 04:28N 36°11' W 005°24'0 0.0
2018-Jun-17 04:00N 36°11' W 005°24'0 0.0
2018-Jun-17 03:19N 36°11' W 005°24'0 0.0
2018-Jun-17 02:52N 36°11' W 005°24'0 0.0
2018-Jun-17 02:30N 36°11' W 005°24'0 0.0
2018-Jun-17 02:00N 36°11' W 005°24'0 0.0
2018-Jun-17 01:29N 36°11' W 005°24'0 0.0
2018-Jun-17 01:00N 36°11' W 005°24'0 0.0
2018-Jun-17 00:30N 36°11' W 005°24'0 0.0
2018-Jun-16 23:43N 36°11' W 005°24'0 0.0
2018-Jun-16 23:29N 36°11' W 005°24'0 0.0
2018-Jun-16 22:59N 36°11' W 005°24'0 0.0
2018-Jun-16 22:30N 36°11' W 005°24'0 0.1
2018-Jun-16 22:00N 36°11' W 005°24'2 4.7
2018-Jun-16 21:30N 36°09' W 005°26'0 0.0
2018-Jun-16 20:58N 36°09' W 005°26'0 0.1
2018-Jun-16 20:28N 36°09' W 005°26'0 0.1
2018-Jun-16 19:58N 36°09' W 005°26'0 0.1
2018-Jun-16 19:30N 36°09' W 005°26'0 0.0
2018-Jun-16 19:00N 36°09' W 005°26'0 0.0
2018-Jun-16 18:30N 36°09' W 005°26'0 0.1
2018-Jun-16 17:54N 36°09' W 005°26'0 0.0
2018-Jun-16 15:40N 36°09' W 005°26'0 0.0
2018-Jun-16 15:30N 36°09' W 005°26'0 0.1
2018-Jun-16 14:59N 36°09' W 005°26'0 0.0
2018-Jun-16 06:19N 36°09' W 005°26'0 0.1
2018-Jun-16 06:00N 36°09' W 005°26'0 0.0
2018-Jun-16 05:30N 36°09' W 005°26'0 0.0
2018-Jun-16 04:59N 36°09' W 005°26'0 0.1
2018-Jun-16 04:29N 36°09' W 005°26'0 0.0
2018-Jun-16 04:00N 36°09' W 005°26'0 0.0
2018-Jun-16 03:30N 36°09' W 005°26'0 0.0
2018-Jun-16 03:00N 36°09' W 005°26'0 0.0
2018-Jun-16 02:30N 36°09' W 005°26'0 0.0
2018-Jun-16 02:00N 36°09' W 005°26'0 0.1
2018-Jun-16 01:29N 36°09' W 005°26'0 0.1
2018-Jun-16 01:00N 36°09' W 005°26'0 0.0
2018-Jun-16 00:30N 36°09' W 005°26'0 0.0
2018-Jun-15 23:58N 36°09' W 005°26'0 0.1
2018-Jun-15 23:30N 36°09' W 005°26'0 0.0
2018-Jun-15 23:00N 36°09' W 005°26'0 0.0
2018-Jun-15 22:29N 36°09' W 005°26'0 0.0
2018-Jun-15 22:00N 36°09' W 005°26'0 0.0
2018-Jun-15 21:30N 36°09' W 005°26'0 0.1
2018-Jun-15 21:00N 36°09' W 005°26'0 0.0
2018-Jun-15 20:26N 36°09' W 005°26'0 0.1
2018-Jun-15 20:00N 36°09' W 005°26'0 0.1
2018-Jun-15 19:30N 36°09' W 005°26'0 0.0
2018-Jun-15 18:59N 36°09' W 005°26'0 0.0
2018-Jun-15 18:29N 36°09' W 005°26'0 0.1
2018-Jun-15 17:58N 36°09' W 005°26'0 0.0
2018-Jun-15 17:29N 36°09' W 005°26'0 0.0
2018-Jun-15 13:10N 36°09' W 005°26'1 2.5
2018-Jun-15 12:48N 36°09' W 005°26'0 0.0
2018-Jun-15 09:10N 36°09' W 005°26'0 0.0
2018-Jun-15 05:32N 36°09' W 005°26'0 0.0
2018-Jun-15 05:29N 36°09' W 005°26'0 0.0
2018-Jun-15 05:00N 36°09' W 005°26'0 0.0
2018-Jun-15 04:28N 36°09' W 005°26'0 0.0
2018-Jun-15 04:00N 36°09' W 005°26'1 1.5
2018-Jun-15 03:30N 36°09' W 005°26'0 0.0
2018-Jun-15 03:00N 36°09' W 005°26'0 0.1
2018-Jun-15 02:30N 36°09' W 005°26'0 0.0
2018-Jun-15 01:59N 36°09' W 005°26'0 0.1
2018-Jun-15 01:30N 36°09' W 005°26'0 0.6
2018-Jun-15 01:00N 36°10' W 005°26'2 3.0
2018-Jun-15 00:25N 36°11' W 005°24'0 0.0
2018-Jun-14 23:58N 36°11' W 005°24'0 0.0
2018-Jun-14 23:30N 36°11' W 005°24'0 0.0
2018-Jun-14 23:00N 36°11' W 005°24'0 0.0
2018-Jun-14 21:14N 36°11' W 005°24'0 0.0
2018-Jun-14 21:00N 36°11' W 005°24'0 0.0
2018-Jun-14 20:30N 36°11' W 005°24'0 0.0
2018-Jun-14 20:00N 36°11' W 005°24'0 0.0
2018-Jun-14 19:30N 36°11' W 005°24'0 0.0
2018-Jun-14 17:48N 36°11' W 005°24'0 0.0
2018-Jun-14 17:30N 36°11' W 005°24'1 0.2
2018-Jun-14 14:01N 36°10' W 005°25'0 0.9
2018-Jun-14 14:00N 36°10' W 005°25'2 3.6
2018-Jun-14 13:28N 36°08' W 005°25'1 3.1
2018-Jun-14 13:00N 36°07' W 005°24'1 1.2
2018-Jun-14 12:30N 36°06' W 005°24'0 0.1
2018-Jun-14 12:00N 36°06' W 005°24'0 0.1
2018-Jun-14 11:28N 36°06' W 005°24'0 0.1
2018-Jun-14 10:52N 36°06' W 005°24'0 0.1
2018-Jun-14 10:30N 36°06' W 005°24'0 0.2
2018-Jun-14 09:42N 36°06' W 005°25'0 0.1
2018-Jun-14 09:27N 36°06' W 005°25'0 0.0
2018-Jun-14 06:05N 36°06' W 005°24'0 0.1
2018-Jun-14 06:00N 36°06' W 005°24'0 0.0
2018-Jun-14 05:30N 36°06' W 005°24'0 0.1
2018-Jun-14 04:58N 36°06' W 005°24'0 0.3
2018-Jun-14 04:30N 36°06' W 005°24'0 0.1
2018-Jun-14 04:00N 36°06' W 005°24'1 1.6
2018-Jun-14 03:30N 36°07' W 005°24'0 0.3
2018-Jun-14 03:00N 36°07' W 005°25'1 2.0
2018-Jun-14 02:30N 36°08' W 005°25'1 2.0
2018-Jun-14 02:00N 36°08' W 005°26'0 0.2
2018-Jun-14 01:30N 36°08' W 005°26'0 0.0
2018-Jun-13 22:44N 36°08' W 005°26'0 0.0
2018-Jun-13 22:30N 36°08' W 005°26'0 0.0
2018-Jun-13 22:00N 36°08' W 005°26'0 0.0
2018-Jun-13 21:30N 36°08' W 005°26'0 0.0
2018-Jun-13 21:00N 36°08' W 005°26'0 0.0
2018-Jun-13 20:30N 36°08' W 005°26'0 0.0
2018-Jun-13 20:00N 36°08' W 005°26'0 0.0
2018-Jun-13 19:30N 36°08' W 005°26'0 0.0
2018-Jun-13 16:20N 36°08' W 005°26'0 0.0
2018-Jun-13 15:59N 36°08' W 005°26'0 0.0
2018-Jun-13 12:42N 36°08' W 005°26'0 0.0
2018-Jun-13 12:30N 36°08' W 005°26'0 0.0
2018-Jun-13 12:00N 36°08' W 005°26'0 0.1
2018-Jun-13 10:06N 36°08' W 005°26'1 4.2
2018-Jun-13 09:56N 36°09' W 005°26'2 2.6
2018-Jun-13 09:09N 36°07' W 005°24'0 0.0
2018-Jun-13 07:01N 36°07' W 005°25'0 0.0
2018-Jun-13 07:00N 36°07' W 005°25'0 0.2
2018-Jun-13 06:18N 36°07' W 005°24'0 0.4
2018-Jun-13 06:00N 36°07' W 005°24'0 0.2
2018-Jun-13 05:30N 36°07' W 005°24'0 0.3
2018-Jun-13 05:00N 36°07' W 005°24'0 0.1
2018-Jun-13 04:30N 36°07' W 005°24'0 0.0
2018-Jun-13 03:58N 36°07' W 005°24'0 0.1
2018-Jun-13 03:30N 36°07' W 005°24'0 0.1
2018-Jun-13 03:00N 36°07' W 005°24'0 0.2
2018-Jun-13 02:30N 36°07' W 005°24'0 0.1
2018-Jun-13 02:00N 36°07' W 005°24'0 0.1
2018-Jun-13 01:30N 36°07' W 005°24'2 5.0
2018-Jun-13 01:00N 36°09' W 005°26'0 0.2
2018-Jun-13 00:30N 36°09' W 005°26'0 0.0
2018-Jun-13 00:00N 36°09' W 005°26'0 0.0
2018-Jun-12 23:18N 36°09' W 005°26'0 0.1
2018-Jun-12 22:44N 36°09' W 005°26'0 0.0
2018-Jun-12 22:30N 36°09' W 005°26'0 0.1
2018-Jun-12 21:56N 36°09' W 005°26'0 0.1
2018-Jun-12 20:45N 36°09' W 005°26'0 0.1
2018-Jun-12 20:30N 36°09' W 005°26'0 0.0
2018-Jun-12 19:56N 36°09' W 005°26'0 0.0
2018-Jun-12 19:30N 36°09' W 005°26'0 0.0
2018-Jun-12 09:04N 36°09' W 005°26'0 0.2
2018-Jun-12 08:58N 36°09' W 005°26'0 0.0
2018-Jun-12 08:25N 36°09' W 005°26'1 0.2
2018-Jun-12 05:20N 36°09' W 005°25'2 5.2
2018-Jun-12 05:00N 36°11' W 005°24'0 0.4
2018-Jun-12 04:26N 36°11' W 005°24'0 0.0
2018-Jun-12 04:00N 36°11' W 005°24'0 0.0
2018-Jun-12 03:30N 36°11' W 005°24'0 0.0
2018-Jun-12 03:00N 36°11' W 005°24'0 0.0
2018-Jun-12 02:29N 36°11' W 005°24'0 0.0
2018-Jun-12 02:00N 36°11' W 005°24'0 0.0
2018-Jun-12 01:30N 36°11' W 005°24'0 0.0
2018-Jun-12 00:57N 36°11' W 005°24'0 0.0
2018-Jun-12 00:25N 36°11' W 005°24'0 0.0
2018-Jun-11 23:56N 36°11' W 005°24'0 0.0
2018-Jun-11 23:29N 36°11' W 005°24'0 0.0
2018-Jun-11 22:57N 36°11' W 005°24'0 0.0
2018-Jun-11 22:30N 36°11' W 005°24'0 0.0
2018-Jun-11 21:58N 36°11' W 005°24'0 0.0
2018-Jun-11 21:27N 36°11' W 005°24'0 1.0
2018-Jun-11 21:00N 36°10' W 005°23'1 1.2
2018-Jun-11 20:29N 36°10' W 005°24'2 3.6
2018-Jun-11 20:00N 36°09' W 005°26'0 0.1
2018-Jun-11 19:30N 36°09' W 005°26'0 0.0
2018-Jun-11 19:00N 36°09' W 005°26'0 0.0
2018-Jun-11 18:30N 36°09' W 005°26'0 0.0
2018-Jun-11 16:19N 36°09' W 005°26'0 0.1
2018-Jun-11 15:55N 36°09' W 005°26'0 0.1
2018-Jun-11 15:24N 36°09' W 005°26'1 0.1
2018-Jun-11 06:47N 36°09' W 005°26'0 0.0
2018-Jun-11 06:30N 36°09' W 005°26'1 1.4
2018-Jun-11 06:00N 36°09' W 005°26'0 0.2
2018-Jun-11 05:30N 36°09' W 005°26'0 0.0
2018-Jun-11 05:00N 36°09' W 005°26'0 0.1
2018-Jun-11 04:30N 36°09' W 005°26'0 0.0
2018-Jun-11 04:00N 36°09' W 005°26'1 2.2
2018-Jun-11 03:30N 36°08' W 005°26'0 0.2
2018-Jun-11 02:59N 36°08' W 005°26'0 0.0
2018-Jun-11 02:30N 36°08' W 005°26'0 0.0
2018-Jun-11 02:00N 36°08' W 005°26'0 0.0
2018-Jun-11 01:30N 36°08' W 005°26'0 0.0
2018-Jun-11 01:00N 36°08' W 005°26'0 0.0
2018-Jun-11 00:30N 36°08' W 005°26'0 0.0
2018-Jun-11 00:00N 36°08' W 005°26'0 0.0
2018-Jun-10 23:28N 36°08' W 005°26'0 0.0
2018-Jun-10 23:00N 36°08' W 005°26'0 0.0
2018-Jun-10 22:28N 36°08' W 005°26'0 0.0
2018-Jun-10 21:28N 36°08' W 005°26'0 0.0
2018-Jun-10 20:54N 36°08' W 005°26'0 0.0
2018-Jun-10 20:19N 36°08' W 005°26'0 0.0
2018-Jun-10 19:55N 36°08' W 005°26'0 0.0
2018-Jun-10 19:27N 36°08' W 005°26'0 0.0
2018-Jun-10 18:59N 36°08' W 005°26'0 0.0
2018-Jun-10 18:28N 36°08' W 005°26'0 0.0
2018-Jun-10 18:00N 36°08' W 005°26'0 0.0
2018-Jun-10 17:30N 36°08' W 005°26'0 0.0
2018-Jun-10 16:54N 36°08' W 005°26'0 0.0
2018-Jun-10 15:45N 36°08' W 005°26'0 0.0
2018-Jun-10 15:17N 36°08' W 005°26'0 0.0
2018-Jun-10 14:50N 36°08' W 005°26'0 0.0
2018-Jun-10 13:59N 36°08' W 005°26'0 0.0
2018-Jun-10 13:29N 36°08' W 005°26'0 0.0
2018-Jun-10 13:00N 36°08' W 005°26'1 2.4
2018-Jun-10 12:30N 36°09' W 005°26'0 0.1
2018-Jun-10 12:00N 36°09' W 005°26'0 0.0
2018-Jun-10 11:30N 36°09' W 005°26'0 0.0
2018-Jun-10 11:00N 36°09' W 005°26'0 0.0
2018-Jun-10 10:27N 36°09' W 005°26'0 0.0
2018-Jun-10 10:00N 36°09' W 005°26'0 0.0
2018-Jun-10 09:30N 36°09' W 005°26'0 0.1
2018-Jun-10 09:00N 36°09' W 005°26'0 0.0
2018-Jun-10 08:30N 36°09' W 005°26'0 0.0
2018-Jun-10 08:00N 36°09' W 005°26'0 0.0
2018-Jun-10 07:30N 36°09' W 005°26'0 0.1
2018-Jun-10 07:00N 36°09' W 005°26'0 0.0
2018-Jun-10 06:30N 36°09' W 005°26'0 0.0
2018-Jun-10 06:00N 36°09' W 005°26'0 0.1
2018-Jun-10 05:28N 36°09' W 005°26'0 0.1
2018-Jun-10 05:00N 36°09' W 005°26'0 0.1
2018-Jun-10 04:30N 36°09' W 005°26'0 0.0
2018-Jun-10 04:00N 36°09' W 005°26'0 0.0
2018-Jun-10 03:28N 36°09' W 005°26'0 0.0
2018-Jun-10 02:59N 36°09' W 005°26'0 0.0
2018-Jun-10 02:30N 36°09' W 005°26'0 0.0
2018-Jun-10 01:59N 36°09' W 005°26'0 0.0
2018-Jun-10 01:30N 36°09' W 005°26'0 0.0
2018-Jun-10 00:53N 36°09' W 005°26'0 0.0
2018-Jun-10 00:30N 36°09' W 005°26'0 0.0
2018-Jun-10 00:00N 36°09' W 005°26'0 0.0
2018-Jun-09 23:30N 36°09' W 005°26'0 0.0
2018-Jun-09 23:00N 36°09' W 005°26'0 0.0
2018-Jun-09 22:30N 36°09' W 005°26'0 0.0
2018-Jun-09 22:00N 36°09' W 005°26'0 0.0
2018-Jun-09 21:30N 36°09' W 005°26'0 0.0
2018-Jun-09 21:00N 36°09' W 005°26'0 0.0
2018-Jun-09 20:29N 36°09' W 005°26'0 0.0
2018-Jun-09 20:00N 36°09' W 005°26'0 0.0
2018-Jun-09 19:29N 36°09' W 005°26'0 0.0
2018-Jun-09 19:00N 36°09' W 005°26'0 0.0
2018-Jun-09 18:30N 36°09' W 005°26'0 0.0
2018-Jun-09 18:00N 36°09' W 005°26'0 0.0
2018-Jun-09 17:30N 36°09' W 005°26'0 0.0
2018-Jun-09 17:00N 36°09' W 005°26'0 0.0
2018-Jun-09 16:30N 36°09' W 005°26'0 0.0
2018-Jun-09 16:00N 36°09' W 005°26'0 0.0
2018-Jun-09 15:30N 36°09' W 005°26'0 0.0
2018-Jun-09 14:30N 36°09' W 005°26'0 0.0
2018-Jun-09 14:00N 36°09' W 005°26'0 0.0
2018-Jun-09 13:30N 36°09' W 005°26'0 0.0
2018-Jun-09 13:00N 36°09' W 005°26'0 0.0
2018-Jun-09 12:30N 36°09' W 005°26'0 0.1
2018-Jun-09 12:00N 36°09' W 005°26'0 0.0
2018-Jun-09 11:30N 36°09' W 005°26'0 0.0
2018-Jun-09 11:00N 36°09' W 005°26'0 0.0
2018-Jun-09 10:30N 36°09' W 005°26'0 0.0
2018-Jun-09 09:57N 36°09' W 005°26'0 0.0
2018-Jun-09 09:30N 36°09' W 005°26'0 0.0
2018-Jun-09 09:00N 36°09' W 005°26'0 0.0
2018-Jun-09 06:21N 36°09' W 005°26'0 0.2
2018-Jun-09 06:00N 36°09' W 005°26'0 0.0
2018-Jun-09 05:30N 36°09' W 005°26'0 0.1
2018-Jun-09 05:00N 36°09' W 005°26'0 0.0
2018-Jun-09 02:27N 36°09' W 005°26'0 0.0
2018-Jun-09 02:00N 36°09' W 005°26'0 0.0
2018-Jun-09 01:00N 36°09' W 005°26'  

Dump ship's entire track history